Weather at Brenham Municipal Airport

Public forecast

Using degrees Fahrenheit for public forecast. Weather courtesy of forecast.io.

Current aviation weather report (METAR) for Brenham Municipal Airport

Retrieved 2020/10/01 12:35 UTC (5 minutes ago):

K11R 011235Z AUTO 00000KT 10SM CLR 12/11 A3013 RMK AO2 T01230113

Closest aviation forecast (TAF) to Brenham Municipal Airport

Closest forecast is Easterwood Field, 22.2 nm (41.1 km) N. Retrieved 2020/10/01 12:30 UTC (10 minutes ago):

TAF KCLL 011127Z 0112/0212 27005KT P6SM SKC FM011600 35006KT P6SM SKC FM011900 01008KT P6SM SKC